Terminal Aerodrome Forecast
Issued by NWS

Home | Current Version | Previous Version | Text Only | Print | Product List | Glossary On
Versions: 1 2 3 4 5 6 7 8 9 10 11 12 13
964
FTUS46 KMTR 172341
TAFMRY
TAF
KMRY 172341Z 1800/1824 VRB05KT P6SM BKN180
     FM180400 10003KT 6SM HZ FEW008 BKN180
     FM181400 12003KT 5SM HZ BR BKN008
     FM181800 29004KT P6SM SKC=

USA.gov is the U.S. government's official web portal to all federal, state and local government web resources and services.